Time;durP1;ratioP1;P1;durP2;ratioP2;P2;SDS_P1;SDS_P2;PMS_P1;PMS_P2;Temp;Humidity;BMP_temperature;BMP_pressure;BME280_temperature;BME280_humidity;BME280_pressure;Samples;Min_cycle;Max_cycle;Signal;HPM_P1;HPM_P2
2023/07/15 00:00:54;;;;;;;6.68;2.50;;;;;;;;;;5012660;28;20074;-87
2023/07/15 00:03:20;;;;;;;4.13;2.00;;;;;;;;;;5029368;28;20033;-89
2023/07/15 00:05:47;;;;;;;5.05;2.00;;;;;;;;;;5013758;28;20049;-88
2023/07/15 00:08:12;;;;;;;4.22;2.20;;;;;;;;;;5010224;28;20068;-88
2023/07/15 00:10:41;;;;;;;4.65;1.95;;;;;;;;;;5014205;28;20053;-88
2023/07/15 00:13:15;;;;;;;4.97;2.17;;;;;;;;;;5031574;28;20022;-86
2023/07/15 00:15:42;;;;;;;5.07;2.13;;;;;;;;;;5013596;28;20108;-88
2023/07/15 00:18:09;;;;;;;6.25;2.35;;;;;;;;;;5017107;28;20049;-87
2023/07/15 00:20:37;;;;;;;4.18;1.95;;;;;;;;;;5014477;28;20017;-88
2023/07/15 00:23:23;;;;;;;3.55;2.10;;;;;;;;;;5032383;28;20025;-88
2023/07/15 00:25:50;;;;;;;4.57;2.10;;;;;;;;;;5013819;28;20025;-88
2023/07/15 00:28:19;;;;;;;4.47;2.00;;;;;;;;;;5032972;28;20079;-88
2023/07/15 00:30:45;;;;;;;6.60;2.00;;;;;;;;;;5027884;28;20032;-87
2023/07/15 00:33:15;;;;;;;4.07;2.28;;;;;;;;;;5013956;28;20120;-88
2023/07/15 00:35:43;;;;;;;5.20;2.30;;;;;;;;;;5033078;28;20504;-87
2023/07/15 00:38:10;;;;;;;5.60;2.03;;;;;;;;;;5018335;28;20486;-88
2023/07/15 00:40:40;;;;;;;3.38;1.95;;;;;;;;;;5014661;28;20040;-87
2023/07/15 00:43:43;;;;;;;3.80;1.90;;;;;;;;;;5035788;28;20061;-88
2023/07/15 00:46:12;;;;;;;;;;;;;;;;;;5027439;28;20557;-87
2023/07/15 00:48:45;;;;;;;4.72;1.90;;;;;;;;;;5012595;28;19913;-87
2023/07/15 00:51:11;;;;;;;5.30;1.85;;;;;;;;;;5032429;28;20076;-87
2023/07/15 00:53:37;;;;;;;4.13;2.20;;;;;;;;;;5012669;28;20021;-88
2023/07/15 00:56:02;;;;;;;3.25;1.80;;;;;;;;;;5025828;28;20030;-87
2023/07/15 00:58:28;;;;;;;6.05;2.03;;;;;;;;;;5031227;28;20497;-88
2023/07/15 01:00:53;;;;;;;2.58;1.77;;;;;;;;;;5008787;28;20112;-88
2023/07/15 01:03:19;;;;;;;4.70;1.83;;;;;;;;;;5013753;28;20547;-87
2023/07/15 01:05:44;;;;;;;4.32;2.00;;;;;;;;;;5030254;28;20025;-87
2023/07/15 01:08:10;;;;;;;3.22;1.73;;;;;;;;;;5037285;28;20116;-86
2023/07/15 01:10:35;;;;;;;4.30;2.00;;;;;;;;;;5035963;28;20060;-88
2023/07/15 01:13:05;;;;;;;2.53;1.52;;;;;;;;;;5035594;28;20481;-87
2023/07/15 01:15:30;;;;;;;3.85;1.70;;;;;;;;;;5034578;28;20393;-86
2023/07/15 01:17:56;;;;;;;3.28;1.90;;;;;;;;;;5032006;28;20036;-87
2023/07/15 01:20:25;;;;;;;4.47;1.77;;;;;;;;;;5030594;28;20088;-88
2023/07/15 01:22:51;;;;;;;5.13;2.08;;;;;;;;;;5012507;28;20534;-88
2023/07/15 01:25:16;;;;;;;3.75;1.77;;;;;;;;;;5018323;28;20120;-86
2023/07/15 01:27:42;;;;;;;4.28;1.92;;;;;;;;;;5037272;28;20466;-86
2023/07/15 01:30:09;;;;;;;5.43;1.85;;;;;;;;;;5036128;28;20152;-87
2023/07/15 01:32:34;;;;;;;3.58;1.77;;;;;;;;;;5022081;28;20130;-87
2023/07/15 01:35:00;;;;;;;3.10;1.77;;;;;;;;;;5037636;28;20068;-88
2023/07/15 01:37:25;;;;;;;3.92;1.88;;;;;;;;;;5017656;28;20056;-88
2023/07/15 01:39:51;;;;;;;3.63;1.90;;;;;;;;;;5019457;28;20118;-88
2023/07/15 01:42:17;;;;;;;3.03;1.80;;;;;;;;;;5016413;28;20061;-85
2023/07/15 01:44:42;;;;;;;3.58;1.70;;;;;;;;;;5033454;28;20029;-85
2023/07/15 01:47:07;;;;;;;3.83;1.70;;;;;;;;;;5017687;28;20028;-89
2023/07/15 01:49:33;;;;;;;2.78;1.75;;;;;;;;;;5002688;28;20120;-87
2023/07/15 01:51:58;;;;;;;4.60;1.70;;;;;;;;;;5017497;28;20033;-88
2023/07/15 01:54:24;;;;;;;3.88;1.80;;;;;;;;;;5036777;28;20029;-88
2023/07/15 01:56:50;;;;;;;4.68;1.95;;;;;;;;;;5019578;28;20116;-83
2023/07/15 01:59:16;;;;;;;3.78;1.80;;;;;;;;;;5020947;28;20430;-87
2023/07/15 02:01:41;;;;;;;5.00;1.80;;;;;;;;;;5035068;28;20056;-86
2023/07/15 02:04:06;;;;;;;4.70;2.00;;;;;;;;;;5022825;28;20087;-88
2023/07/15 02:06:32;;;;;;;2.88;1.70;;;;;;;;;;5035357;28;20393;-87
2023/07/15 02:08:58;;;;;;;3.35;1.77;;;;;;;;;;5017579;28;20116;-85
2023/07/15 02:11:23;;;;;;;5.93;1.90;;;;;;;;;;5021285;28;20456;-87
2023/07/15 02:13:50;;;;;;;4.05;1.90;;;;;;;;;;5038468;28;20056;-86
2023/07/15 02:16:16;;;;;;;3.95;2.08;;;;;;;;;;5038830;28;20026;-87
2023/07/15 02:18:41;;;;;;;4.63;2.05;;;;;;;;;;5035679;28;20815;-87
2023/07/15 02:21:07;;;;;;;3.97;1.77;;;;;;;;;;5017241;28;20053;-87
2023/07/15 02:23:33;;;;;;;4.32;2.00;;;;;;;;;;5017452;28;20025;-87
2023/07/15 02:25:59;;;;;;;3.92;1.90;;;;;;;;;;5035767;28;20375;-87
2023/07/15 02:28:26;;;;;;;4.15;1.70;;;;;;;;;;5016668;28;20074;-86
2023/07/15 02:30:52;;;;;;;2.53;1.60;;;;;;;;;;5033855;28;20378;-88
2023/07/15 02:33:17;;;;;;;4.30;1.98;;;;;;;;;;5016682;28;20027;-88
2023/07/15 02:35:43;;;;;;;3.50;1.55;;;;;;;;;;5015474;28;20029;-87
2023/07/15 02:38:09;;;;;;;3.33;1.73;;;;;;;;;;5029948;28;20036;-87
2023/07/15 02:40:34;;;;;;;5.25;1.90;;;;;;;;;;5031524;28;20021;-87
2023/07/15 02:43:00;;;;;;;4.60;1.80;;;;;;;;;;5011190;28;20026;-87
2023/07/15 02:45:26;;;;;;;4.35;1.73;;;;;;;;;;5018057;28;20057;-86
2023/07/15 02:47:51;;;;;;;3.67;1.70;;;;;;;;;;5017011;28;20025;-88
2023/07/15 02:50:18;;;;;;;3.60;2.03;;;;;;;;;;5013677;28;20075;-88
2023/07/15 02:52:45;;;;;;;4.15;1.52;;;;;;;;;;5017913;28;20023;-88
2023/07/15 02:55:11;;;;;;;3.40;1.48;;;;;;;;;;5013465;28;20478;-88
2023/07/15 02:57:36;;;;;;;5.15;1.90;;;;;;;;;;5032079;28;20033;-87
2023/07/15 03:00:09;;;;;;;4.35;1.90;;;;;;;;;;5016460;28;20072;-87
2023/07/15 03:02:35;;;;;;;3.58;1.90;;;;;;;;;;5027441;28;20022;-85
2023/07/15 03:05:02;;;;;;;4.35;1.88;;;;;;;;;;5007036;28;20034;-87
2023/07/15 03:07:27;;;;;;;2.50;1.70;;;;;;;;;;5008861;28;20053;-82
2023/07/15 03:09:53;;;;;;;3.33;1.88;;;;;;;;;;5010357;28;20476;-84
2023/07/15 03:12:18;;;;;;;3.22;1.70;;;;;;;;;;5007735;28;20060;-88
2023/07/15 03:14:44;;;;;;;5.32;1.92;;;;;;;;;;5028004;28;20367;-86
2023/07/15 03:17:10;;;;;;;4.22;1.75;;;;;;;;;;5029257;28;20081;-86
2023/07/15 03:19:37;;;;;;;3.95;1.73;;;;;;;;;;5025881;28;20035;-87
2023/07/15 03:22:03;;;;;;;2.90;1.77;;;;;;;;;;5007377;28;20470;-86
2023/07/15 03:24:29;;;;;;;4.40;2.50;;;;;;;;;;5024783;28;20092;-85
2023/07/15 03:26:55;;;;;;;3.47;1.77;;;;;;;;;;5026807;28;20048;-85
2023/07/15 03:29:22;;;;;;;5.00;1.70;;;;;;;;;;5004824;28;20041;-87
2023/07/15 03:31:48;;;;;;;2.70;1.80;;;;;;;;;;5027305;28;20076;-85
2023/07/15 03:34:13;;;;;;;3.30;1.85;;;;;;;;;;5007082;28;20048;-84
2023/07/15 03:36:39;;;;;;;4.53;1.85;;;;;;;;;;5007103;28;20056;-81
2023/07/15 03:39:05;;;;;;;3.30;1.90;;;;;;;;;;5007379;28;20033;-87
2023/07/15 03:41:31;;;;;;;4.65;2.03;;;;;;;;;;5008439;28;20036;-87
2023/07/15 03:43:56;;;;;;;3.50;1.90;;;;;;;;;;5000924;28;20037;-81
2023/07/15 03:46:23;;;;;;;5.47;2.17;;;;;;;;;;5022716;28;20028;-89
2023/07/15 03:48:48;;;;;;;4.32;1.98;;;;;;;;;;5007317;28;20025;-88
2023/07/15 03:51:14;;;;;;;3.35;2.08;;;;;;;;;;5025781;28;20083;-86
2023/07/15 03:53:39;;;;;;;3.95;1.80;;;;;;;;;;5021159;28;21756;-87
2023/07/15 03:56:05;;;;;;;4.35;1.90;;;;;;;;;;5021906;28;20048;-87
2023/07/15 03:58:30;;;;;;;4.45;2.10;;;;;;;;;;5025237;28;20057;-85
2023/07/15 04:00:56;;;;;;;3.42;1.73;;;;;;;;;;5027507;28;20029;-86
2023/07/15 04:03:21;;;;;;;3.10;1.77;;;;;;;;;;5009043;28;20029;-88
2023/07/15 04:05:46;;;;;;;4.57;2.13;;;;;;;;;;5028262;28;20025;-88
2023/07/15 04:08:12;;;;;;;2.70;1.77;;;;;;;;;;5025743;28;20083;-88
2023/07/15 04:10:37;;;;;;;5.13;1.88;;;;;;;;;;5025138;28;20385;-83
2023/07/15 04:13:03;;;;;;;3.58;2.08;;;;;;;;;;5003355;28;20462;-88
2023/07/15 04:15:32;;;;;;;4.97;2.10;;;;;;;;;;5033219;28;20021;-87
2023/07/15 04:17:57;;;;;;;2.70;1.80;;;;;;;;;;5021645;28;20079;-88
2023/07/15 04:20:22;;;;;;;3.33;2.22;;;;;;;;;;5014785;28;20112;-87
2023/07/15 04:22:48;;;;;;;3.05;1.90;;;;;;;;;;5015485;28;20323;-88
2023/07/15 04:25:14;;;;;;;3.10;1.90;;;;;;;;;;5024714;28;20025;-87
2023/07/15 04:27:40;;;;;;;4.45;2.00;;;;;;;;;;5026265;28;20026;-88
2023/07/15 04:30:06;;;;;;;5.07;1.95;;;;;;;;;;5014400;28;20128;-88
2023/07/15 04:32:31;;;;;;;5.38;1.90;;;;;;;;;;5015367;28;20114;-88
2023/07/15 04:34:57;;;;;;;6.28;1.88;;;;;;;;;;5032775;28;20061;-87
2023/07/15 04:37:24;;;;;;;4.10;1.88;;;;;;;;;;5015423;28;20053;-88
2023/07/15 04:39:50;;;;;;;3.95;2.22;;;;;;;;;;5015455;28;20034;-88
2023/07/15 04:42:15;;;;;;;4.95;1.75;;;;;;;;;;5031056;28;20044;-88
2023/07/15 04:44:40;;;;;;;3.75;1.98;;;;;;;;;;5015206;28;20017;-87
2023/07/15 04:47:06;;;;;;;3.08;1.90;;;;;;;;;;5012044;28;20038;-88
2023/07/15 04:49:32;;;;;;;3.55;1.83;;;;;;;;;;5024838;28;20478;-88
2023/07/15 04:51:57;;;;;;;4.22;2.22;;;;;;;;;;5027955;28;20035;-88
2023/07/15 04:54:23;;;;;;;5.70;2.15;;;;;;;;;;5031629;28;20116;-87
2023/07/15 04:56:48;;;;;;;4.03;2.05;;;;;;;;;;5019941;28;20461;-88
2023/07/15 04:59:14;;;;;;;3.75;1.90;;;;;;;;;;5036424;28;20029;-87
2023/07/15 05:01:39;;;;;;;5.32;2.20;;;;;;;;;;5027010;28;20051;-88
2023/07/15 05:04:04;;;;;;;3.85;1.98;;;;;;;;;;5017249;28;20034;-85
2023/07/15 05:06:30;;;;;;;4.22;2.17;;;;;;;;;;5023522;28;20072;-87
2023/07/15 05:08:56;;;;;;;5.30;2.42;;;;;;;;;;5010140;28;20044;-88
2023/07/15 05:11:22;;;;;;;4.40;2.20;;;;;;;;;;5015237;28;20036;-88
2023/07/15 05:13:47;;;;;;;5.32;2.20;;;;;;;;;;5015089;28;20049;-88
2023/07/15 05:16:14;;;;;;;8.05;2.45;;;;;;;;;;5032557;28;20101;-89
2023/07/15 05:18:39;;;;;;;3.67;2.00;;;;;;;;;;5032921;28;20025;-89
2023/07/15 05:21:05;;;;;;;5.15;2.17;;;;;;;;;;5020365;28;20021;-86
2023/07/15 05:23:31;;;;;;;5.25;2.08;;;;;;;;;;5032965;28;20026;-88
2023/07/15 05:26:00;;;;;;;5.50;2.15;;;;;;;;;;5014585;28;20029;-88
2023/07/15 05:28:32;;;;;;;3.42;1.98;;;;;;;;;;5014712;28;20389;-87
2023/07/15 05:31:02;;;;;;;6.82;2.60;;;;;;;;;;5016916;28;20478;-88
2023/07/15 05:33:29;;;;;;;5.32;1.92;;;;;;;;;;5016261;28;20492;-88
2023/07/15 05:35:55;;;;;;;3.60;1.80;;;;;;;;;;5032594;28;20056;-88
2023/07/15 05:38:24;;;;;;;3.80;2.35;;;;;;;;;;5032686;28;20481;-87
2023/07/15 05:40:54;;;;;;;4.25;2.50;;;;;;;;;;5014535;28;20478;-88
2023/07/15 05:43:20;;;;;;;4.32;2.25;;;;;;;;;;5031172;28;20316;-86
2023/07/15 05:45:46;;;;;;;3.40;2.28;;;;;;;;;;5031907;28;20021;-88
2023/07/15 05:48:11;;;;;;;4.97;2.40;;;;;;;;;;5013984;28;20032;-88
2023/07/15 05:50:38;;;;;;;5.10;2.10;;;;;;;;;;5015927;28;20154;-88
2023/07/15 05:53:04;;;;;;;4.20;2.13;;;;;;;;;;5014772;28;20044;-89
2023/07/15 05:55:33;;;;;;;4.47;2.17;;;;;;;;;;5018256;28;20029;-88
2023/07/15 05:57:58;;;;;;;4.55;2.10;;;;;;;;;;5039512;28;20464;-88
2023/07/15 06:00:24;;;;;;;4.15;2.38;;;;;;;;;;5017771;28;20104;-88
2023/07/15 06:02:49;;;;;;;3.17;2.10;;;;;;;;;;5017867;28;20021;-88
2023/07/15 06:05:15;;;;;;;4.30;2.25;;;;;;;;;;5033684;28;20021;-89
2023/07/15 06:07:40;;;;;;;3.50;2.30;;;;;;;;;;5008998;28;20385;-88
2023/07/15 06:10:06;;;;;;;5.15;2.42;;;;;;;;;;5016315;28;20021;-88
2023/07/15 06:12:32;;;;;;;3.83;2.40;;;;;;;;;;5021106;28;20494;-88
2023/07/15 06:14:57;;;;;;;7.43;2.40;;;;;;;;;;5011362;28;20033;-87
2023/07/15 06:17:23;;;;;;;4.13;2.35;;;;;;;;;;5011721;28;20064;-89
2023/07/15 06:19:48;;;;;;;4.88;2.40;;;;;;;;;;5030739;28;20083;-89
2023/07/15 06:22:13;;;;;;;4.95;2.83;;;;;;;;;;5017945;28;20025;-87
2023/07/15 06:24:39;;;;;;;4.95;2.45;;;;;;;;;;5017310;28;20036;-89
2023/07/15 06:27:05;;;;;;;4.05;2.33;;;;;;;;;;5017671;28;20470;-89
2023/07/15 06:29:31;;;;;;;5.57;2.28;;;;;;;;;;5035222;28;20033;-88
2023/07/15 06:31:56;;;;;;;4.82;2.42;;;;;;;;;;5017836;28;20436;-89
2023/07/15 06:34:21;;;;;;;4.22;2.30;;;;;;;;;;5017651;28;20028;-89
2023/07/15 06:36:47;;;;;;;5.88;2.10;;;;;;;;;;5036065;28;20474;-86
2023/07/15 06:39:12;;;;;;;11.20;2.35;;;;;;;;;;5017678;28;20035;-89
2023/07/15 06:41:38;;;;;;;4.65;2.17;;;;;;;;;;5017504;28;20493;-89
2023/07/15 06:44:03;;;;;;;4.60;2.30;;;;;;;;;;5033633;28;20017;-89
2023/07/15 06:46:28;;;;;;;2.70;1.85;;;;;;;;;;5017660;28;20490;-89
2023/07/15 06:48:55;;;;;;;4.85;2.25;;;;;;;;;;5034806;28;20026;-88
2023/07/15 06:51:22;;;;;;;3.83;2.30;;;;;;;;;;5017203;28;20057;-88
2023/07/15 06:53:48;;;;;;;3.78;2.22;;;;;;;;;;5016508;28;20017;-90
2023/07/15 06:56:13;;;;;;;4.78;2.17;;;;;;;;;;5014528;28;20017;-88
2023/07/15 06:58:38;;;;;;;4.82;2.10;;;;;;;;;;5033804;28;20030;-88
2023/07/15 07:01:04;;;;;;;3.72;2.28;;;;;;;;;;5030833;28;20478;-88
2023/07/15 07:03:30;;;;;;;4.80;2.15;;;;;;;;;;5013742;28;20029;-90
2023/07/15 07:05:55;;;;;;;4.70;2.20;;;;;;;;;;5027652;28;20520;-89
2023/07/15 07:08:23;;;;;;;2.85;2.00;;;;;;;;;;5034420;28;20017;-88
2023/07/15 07:10:52;;;;;;;2.92;2.00;;;;;;;;;;5034747;28;20052;-89
2023/07/15 07:13:18;;;;;;;3.58;2.00;;;;;;;;;;5033069;28;20021;-89
2023/07/15 07:15:44;;;;;;;6.95;2.10;;;;;;;;;;5012609;28;20017;-83
2023/07/15 07:18:09;;;;;;;2.65;1.70;;;;;;;;;;5016985;28;20543;-88
2023/07/15 07:20:35;;;;;;;4.53;1.98;;;;;;;;;;5034353;28;20494;-90
2023/07/15 07:23:00;;;;;;;4.30;1.98;;;;;;;;;;5034208;28;20107;-89
2023/07/15 07:25:25;;;;;;;4.68;2.00;;;;;;;;;;5016251;28;20414;-88
2023/07/15 07:27:51;;;;;;;3.53;2.20;;;;;;;;;;5016113;28;20029;-90
2023/07/15 07:30:16;;;;;;;3.53;1.80;;;;;;;;;;5015339;28;20470;-89
2023/07/15 07:32:42;;;;;;;4.20;2.10;;;;;;;;;;5028434;28;20022;-89
2023/07/15 07:35:07;;;;;;;3.13;1.70;;;;;;;;;;5031757;28;20028;-90
2023/07/15 07:37:33;;;;;;;3.08;1.80;;;;;;;;;;5028003;28;20379;-88
2023/07/15 07:39:58;;;;;;;3.47;1.70;;;;;;;;;;5029647;28;20351;-89
2023/07/15 07:42:24;;;;;;;3.40;1.70;;;;;;;;;;5010442;28;20095;-89
2023/07/15 07:44:49;;;;;;;3.65;1.73;;;;;;;;;;5031778;28;20033;-89
2023/07/15 07:47:14;;;;;;;5.35;1.90;;;;;;;;;;5020578;28;20021;-87
2023/07/15 07:49:40;;;;;;;3.50;1.83;;;;;;;;;;5033695;28;20018;-88
2023/07/15 07:52:05;;;;;;;4.75;1.63;;;;;;;;;;5015697;28;20091;-89
2023/07/15 07:54:31;;;;;;;3.25;1.38;;;;;;;;;;5015578;28;20017;-88
2023/07/15 07:56:56;;;;;;;3.58;1.70;;;;;;;;;;5030949;28;20041;-89
2023/07/15 07:59:22;;;;;;;2.72;1.67;;;;;;;;;;5033552;28;20359;-89
2023/07/15 08:01:47;;;;;;;2.83;1.58;;;;;;;;;;5015029;28;20167;-88
2023/07/15 08:04:12;;;;;;;2.80;1.40;;;;;;;;;;5033146;28;20156;-89
2023/07/15 08:06:38;;;;;;;3.00;1.40;;;;;;;;;;5033022;28;20030;-88
2023/07/15 08:09:04;;;;;;;4.63;1.48;;;;;;;;;;5015530;28;20448;-87
2023/07/15 08:11:30;;;;;;;2.42;1.42;;;;;;;;;;5032260;28;20021;-90
2023/07/15 08:13:55;;;;;;;1.63;1.10;;;;;;;;;;5015903;28;20104;-89
2023/07/15 08:16:35;;;;;;;2.42;1.20;;;;;;;;;;5032465;28;20061;-88
2023/07/15 08:19:01;;;;;;;2.45;1.08;;;;;;;;;;5025304;28;20029;-87
2023/07/15 08:21:27;;;;;;;1.88;1.10;;;;;;;;;;5016957;28;20036;-87
2023/07/15 08:23:56;;;;;;;3.10;1.20;;;;;;;;;;5015186;28;20013;-86
2023/07/15 08:26:22;;;;;;;1.92;1.27;;;;;;;;;;5016456;28;20052;-87
2023/07/15 08:28:47;;;;;;;3.22;1.25;;;;;;;;;;5040353;28;20061;-88
2023/07/15 08:31:13;;;;;;;3.38;1.15;;;;;;;;;;5032796;28;20453;-89
2023/07/15 08:33:38;;;;;;;3.33;1.20;;;;;;;;;;5015209;28;20025;-87
2023/07/15 08:36:04;;;;;;;2.53;1.23;;;;;;;;;;5014553;28;20095;-86
2023/07/15 08:38:31;;;;;;;2.58;1.10;;;;;;;;;;5032896;28;20235;-88
2023/07/15 08:40:59;;;;;;;2.80;1.20;;;;;;;;;;5032729;28;20022;-87
2023/07/15 08:43:26;;;;;;;3.30;1.25;;;;;;;;;;5015023;28;20084;-87
2023/07/15 08:45:55;;;;;;;2.85;1.25;;;;;;;;;;5039995;28;20021;-85
2023/07/15 08:48:20;;;;;;;3.20;1.60;;;;;;;;;;5014928;28;20033;-87
2023/07/15 08:50:46;;;;;;;3.88;1.30;;;;;;;;;;5032179;28;20025;-88
2023/07/15 08:53:14;;;;;;;2.58;1.20;;;;;;;;;;5015144;28;20544;-88
2023/07/15 08:55:41;;;;;;;2.55;1.55;;;;;;;;;;5032583;28;20021;-88
2023/07/15 08:58:07;;;;;;;2.72;1.30;;;;;;;;;;5032395;28;20043;-87
2023/07/15 09:00:32;;;;;;;2.55;1.23;;;;;;;;;;5014650;28;20474;-88
2023/07/15 09:02:58;;;;;;;2.63;1.50;;;;;;;;;;5035276;28;20054;-87
2023/07/15 09:05:23;;;;;;;2.28;1.25;;;;;;;;;;5032118;28;20025;-89
2023/07/15 09:07:57;;;;;;;2.13;1.35;;;;;;;;;;5014608;28;20029;-88
2023/07/15 09:10:22;;;;;;;2.42;1.30;;;;;;;;;;5020052;28;20116;-88
2023/07/15 09:12:54;;;;;;;2.50;1.30;;;;;;;;;;5014292;28;20500;-85
2023/07/15 09:15:19;;;;;;;2.22;1.23;;;;;;;;;;5032530;28;20022;-88
2023/07/15 09:17:53;;;;;;;2.40;1.20;;;;;;;;;;5014524;28;20025;-88
2023/07/15 09:20:20;;;;;;;3.22;1.50;;;;;;;;;;5014223;28;20036;-87
2023/07/15 09:22:54;;;;;;;2.72;1.50;;;;;;;;;;5014786;28;20029;-87
2023/07/15 09:25:22;;;;;;;4.32;1.50;;;;;;;;;;5025102;28;20021;-89
2023/07/15 09:27:48;;;;;;;3.78;1.42;;;;;;;;;;5015714;28;20495;-87
2023/07/15 09:30:14;;;;;;;3.13;1.35;;;;;;;;;;5014828;28;20061;-88
2023/07/15 09:32:39;;;;;;;2.78;1.40;;;;;;;;;;5017780;28;20416;-88
2023/07/15 09:35:06;;;;;;;4.18;1.42;;;;;;;;;;5016255;28;20029;-87
2023/07/15 09:37:32;;;;;;;2.83;1.33;;;;;;;;;;5013780;28;20028;-88
2023/07/15 09:40:05;;;;;;;3.05;1.50;;;;;;;;;;5035899;28;20025;-87
2023/07/15 09:42:42;;;;;;;;;;;;;;;;;;5002852;28;20293;-88
2023/07/15 09:45:08;;;;;;;2.53;1.40;;;;;;;;;;5035927;28;19913;-88
2023/07/15 09:47:35;;;;;;;2.25;1.30;;;;;;;;;;5032236;28;20424;-85
2023/07/15 09:50:00;;;;;;;2.45;1.40;;;;;;;;;;5015399;28;20036;-89
2023/07/15 09:52:27;;;;;;;3.33;1.58;;;;;;;;;;5018166;28;20029;-89
2023/07/15 09:54:53;;;;;;;2.90;1.50;;;;;;;;;;5018113;28;20033;-88
2023/07/15 09:57:20;;;;;;;2.83;1.58;;;;;;;;;;5018231;28;20021;-87
2023/07/15 09:59:47;;;;;;;2.83;1.38;;;;;;;;;;5017365;28;20470;-86
2023/07/15 10:02:17;;;;;;;3.83;1.65;;;;;;;;;;5036671;28;20171;-87
2023/07/15 10:04:45;;;;;;;5.20;1.60;;;;;;;;;;5018927;28;20029;-89
2023/07/15 10:07:11;;;;;;;5.05;1.80;;;;;;;;;;5035758;28;20051;-88
2023/07/15 10:09:37;;;;;;;3.33;1.38;;;;;;;;;;5017626;28;20030;-88
2023/07/15 10:12:04;;;;;;;2.47;1.35;;;;;;;;;;5029490;28;20025;-88
2023/07/15 10:14:31;;;;;;;3.80;1.40;;;;;;;;;;5028498;28;20670;-86
2023/07/15 10:17:33;;;;;;;3.00;1.30;;;;;;;;;;5018715;28;20029;-88
2023/07/15 10:20:17;;;;;;;3.05;1.48;;;;;;;;;;5000527;28;20038;-87
2023/07/15 10:22:43;;;;;;;2.58;1.40;;;;;;;;;;5016364;28;20116;-82
2023/07/15 10:25:12;;;;;;;3.17;1.50;;;;;;;;;;5030855;28;20530;-88
2023/07/15 10:27:38;;;;;;;3.05;1.60;;;;;;;;;;5020852;28;20032;-88
2023/07/15 10:30:26;;;;;;;3.92;1.50;;;;;;;;;;5016567;28;20433;-89
2023/07/15 10:33:01;;;;;;;4.47;1.83;;;;;;;;;;5017543;28;20072;-87
2023/07/15 10:35:28;;;;;;;2.10;1.10;;;;;;;;;;5017277;28;20028;-87
2023/07/15 10:37:55;;;;;;;3.30;1.52;;;;;;;;;;5031893;28;20041;-88
2023/07/15 10:40:49;;;;;;;3.83;1.67;;;;;;;;;;5012399;28;20079;-87
2023/07/15 10:43:19;;;;;;;4.78;1.48;;;;;;;;;;5029139;28;20029;-85
2023/07/15 10:45:53;;;;;;;2.78;1.50;;;;;;;;;;5013738;28;20047;-88
2023/07/15 10:48:19;;;;;;;6.63;1.65;;;;;;;;;;5034961;28;20111;-89
2023/07/15 10:50:52;;;;;;;7.68;1.52;;;;;;;;;;5034640;28;20029;-88
2023/07/15 10:53:29;;;;;;;3.78;1.52;;;;;;;;;;5034933;28;20385;-88
2023/07/15 10:56:02;;;;;;;4.43;1.60;;;;;;;;;;5034580;28;20025;-88
2023/07/15 10:58:28;;;;;;;2.67;1.30;;;;;;;;;;5033920;28;20470;-89
2023/07/15 11:00:59;;;;;;;2.00;1.40;;;;;;;;;;5033546;28;20474;-88
2023/07/15 11:03:26;;;;;;;5.07;1.88;;;;;;;;;;5016970;28;20030;-89
2023/07/15 11:05:51;;;;;;;5.40;1.52;;;;;;;;;;5034407;28;20029;-88
2023/07/15 11:08:19;;;;;;;3.75;1.60;;;;;;;;;;5016996;28;20565;-89
2023/07/15 11:10:45;;;;;;;2.85;1.55;;;;;;;;;;5037261;28;20013;-88
2023/07/15 11:13:14;;;;;;;4.78;1.60;;;;;;;;;;5034692;28;20428;-87
2023/07/15 11:15:41;;;;;;;3.08;1.50;;;;;;;;;;5034752;28;20071;-88
2023/07/15 11:18:14;;;;;;;2.20;1.30;;;;;;;;;;5034650;28;20029;-88
2023/07/15 11:20:39;;;;;;;4.43;1.20;;;;;;;;;;5034627;28;20033;-87
2023/07/15 11:23:04;;;;;;;5.00;1.60;;;;;;;;;;5005356;28;20492;-88
2023/07/15 11:25:30;;;;;;;2.30;1.30;;;;;;;;;;5034607;28;20566;-87
2023/07/15 11:27:59;;;;;;;5.57;1.50;;;;;;;;;;5034533;28;20028;-89
2023/07/15 11:30:25;;;;;;;2.63;1.20;;;;;;;;;;5016925;28;20029;-88
2023/07/15 11:32:54;;;;;;;3.60;1.35;;;;;;;;;;5034291;28;20079;-87
2023/07/15 11:35:21;;;;;;;5.50;1.80;;;;;;;;;;5010757;28;20318;-88
2023/07/15 11:37:47;;;;;;;2.53;1.38;;;;;;;;;;5032644;28;20021;-89
2023/07/15 11:40:19;;;;;;;2.53;1.27;;;;;;;;;;5013702;28;20025;-89
2023/07/15 11:42:44;;;;;;;4.00;1.50;;;;;;;;;;5034182;28;20076;-85
2023/07/15 11:45:10;;;;;;;3.03;1.38;;;;;;;;;;5020516;28;20021;-89
2023/07/15 11:47:36;;;;;;;2.70;1.38;;;;;;;;;;5034764;28;20036;-89
2023/07/15 11:50:03;;;;;;;2.38;1.30;;;;;;;;;;5032941;28;20025;-86
2023/07/15 11:52:39;;;;;;;2.88;1.40;;;;;;;;;;5016595;28;20075;-89
2023/07/15 11:55:05;;;;;;;5.00;1.20;;;;;;;;;;5017315;28;20029;-87
2023/07/15 11:57:30;;;;;;;2.90;1.27;;;;;;;;;;5016196;28;20029;-88
2023/07/15 11:59:55;;;;;;;2.35;1.42;;;;;;;;;;5032998;28;20021;-88
2023/07/15 12:02:21;;;;;;;4.15;1.27;;;;;;;;;;5034190;28;20044;-88
2023/07/15 12:04:48;;;;;;;2.72;1.20;;;;;;;;;;5034868;28;20112;-88
2023/07/15 12:07:13;;;;;;;2.85;1.30;;;;;;;;;;5018657;28;20076;-87
2023/07/15 12:09:39;;;;;;;2.45;1.30;;;;;;;;;;5017012;28;20108;-87
2023/07/15 12:12:05;;;;;;;2.65;1.27;;;;;;;;;;5031376;28;20032;-88
2023/07/15 12:14:33;;;;;;;2.17;1.00;;;;;;;;;;5034082;28;20022;-89
2023/07/15 12:16:59;;;;;;;2.10;1.05;;;;;;;;;;5030363;28;20021;-90
2023/07/15 12:19:25;;;;;;;2.67;1.05;;;;;;;;;;5013500;28;20021;-89
2023/07/15 12:21:52;;;;;;;2.50;1.20;;;;;;;;;;5021443;28;20112;-88
2023/07/15 12:24:17;;;;;;;2.20;1.27;;;;;;;;;;5025026;28;20862;-89
2023/07/15 12:26:42;;;;;;;1.70;1.17;;;;;;;;;;5017363;28;20022;-87
2023/07/15 12:29:08;;;;;;;2.60;1.30;;;;;;;;;;5035447;28;20029;-86
2023/07/15 12:31:33;;;;;;;2.13;1.10;;;;;;;;;;5036099;28;20021;-89
2023/07/15 12:33:59;;;;;;;2.97;1.38;;;;;;;;;;5018646;28;20032;-89
2023/07/15 12:36:24;;;;;;;3.35;1.20;;;;;;;;;;5027521;28;20542;-89
2023/07/15 12:38:49;;;;;;;3.53;1.50;;;;;;;;;;5021657;28;20052;-89
2023/07/15 12:41:15;;;;;;;2.33;1.40;;;;;;;;;;5022367;28;20243;-89
2023/07/15 12:43:41;;;;;;;3.15;1.45;;;;;;;;;;5043005;28;20025;-89
2023/07/15 12:46:07;;;;;;;3.33;1.40;;;;;;;;;;5035199;28;20025;-88
2023/07/15 12:48:33;;;;;;;3.20;1.50;;;;;;;;;;5034904;28;20048;-89
2023/07/15 12:50:59;;;;;;;1.92;1.27;;;;;;;;;;5034002;28;20453;-84
2023/07/15 12:53:24;;;;;;;2.45;1.55;;;;;;;;;;5016545;28;20029;-90
2023/07/15 12:55:53;;;;;;;3.35;1.50;;;;;;;;;;5015661;28;20037;-90
2023/07/15 12:58:19;;;;;;;3.60;1.42;;;;;;;;;;5015828;28;20022;-88
2023/07/15 13:00:44;;;;;;;2.50;1.33;;;;;;;;;;5033998;28;20092;-88
2023/07/15 13:03:10;;;;;;;3.20;1.40;;;;;;;;;;5032881;28;20026;-88
2023/07/15 13:05:36;;;;;;;2.67;1.40;;;;;;;;;;5032567;28;20093;-89
2023/07/15 13:08:02;;;;;;;2.75;1.50;;;;;;;;;;5033694;28;20049;-88
2023/07/15 13:10:29;;;;;;;4.00;1.50;;;;;;;;;;5033516;28;20159;-89
2023/07/15 13:12:55;;;;;;;2.63;1.30;;;;;;;;;;5032791;28;20028;-88
2023/07/15 13:15:20;;;;;;;3.88;1.70;;;;;;;;;;5033450;28;20033;-88
2023/07/15 13:17:46;;;;;;;4.60;1.60;;;;;;;;;;5019201;28;20040;-89
2023/07/15 13:20:12;;;;;;;3.95;1.60;;;;;;;;;;5013180;28;20109;-88
2023/07/15 13:22:39;;;;;;;2.10;1.30;;;;;;;;;;5030807;28;20022;-84
2023/07/15 13:25:05;;;;;;;4.82;1.50;;;;;;;;;;5014577;28;20029;-89
2023/07/15 13:27:37;;;;;;;5.43;1.55;;;;;;;;;;5032690;28;20033;-86
2023/07/15 13:30:02;;;;;;;3.47;1.52;;;;;;;;;;5032723;28;20428;-89
2023/07/15 13:32:28;;;;;;;2.75;1.50;;;;;;;;;;5032557;28;20037;-89
2023/07/15 13:34:53;;;;;;;5.47;1.50;;;;;;;;;;5015491;28;20108;-89
2023/07/15 13:37:19;;;;;;;5.38;2.03;;;;;;;;;;5015471;28;20108;-89
2023/07/15 13:39:45;;;;;;;4.13;1.80;;;;;;;;;;5030698;28;20033;-87
2023/07/15 13:42:13;;;;;;;3.50;1.63;;;;;;;;;;5032963;28;20032;-89
2023/07/15 13:44:38;;;;;;;3.65;2.13;;;;;;;;;;5025256;28;20083;-89
2023/07/15 13:47:05;;;;;;;3.30;1.60;;;;;;;;;;5032371;28;20429;-90
2023/07/15 13:49:30;;;;;;;2.80;1.70;;;;;;;;;;5021899;28;20022;-89
2023/07/15 13:51:58;;;;;;;3.42;1.73;;;;;;;;;;5040144;28;20033;-90
2023/07/15 13:54:24;;;;;;;3.50;1.77;;;;;;;;;;4998582;28;20465;-88
2023/07/15 13:56:50;;;;;;;3.00;1.70;;;;;;;;;;5032645;28;20389;-89
2023/07/15 13:59:17;;;;;;;3.13;1.70;;;;;;;;;;5014988;28;20028;-89
2023/07/15 14:01:45;;;;;;;4.43;1.88;;;;;;;;;;5007915;28;20021;-89
2023/07/15 14:04:10;;;;;;;2.55;1.70;;;;;;;;;;5032036;28;20037;-89
2023/07/15 14:06:36;;;;;;;6.68;1.70;;;;;;;;;;5031690;28;20045;-89
2023/07/15 14:09:02;;;;;;;3.92;1.80;;;;;;;;;;5031740;28;20029;-89
2023/07/15 14:11:28;;;;;;;4.53;1.90;;;;;;;;;;5031990;28;20112;-89
2023/07/15 14:13:53;;;;;;;5.05;1.90;;;;;;;;;;5014400;28;20453;-89
2023/07/15 14:16:19;;;;;;;2.88;1.52;;;;;;;;;;5017726;28;20029;-89
2023/07/15 14:18:44;;;;;;;5.07;1.90;;;;;;;;;;5027891;28;20481;-86
2023/07/15 14:21:09;;;;;;;2.83;1.60;;;;;;;;;;5018024;28;20052;-89
2023/07/15 14:23:35;;;;;;;3.55;1.45;;;;;;;;;;5036041;28;20013;-89
2023/07/15 14:26:01;;;;;;;4.80;1.63;;;;;;;;;;5017377;28;20029;-88
2023/07/15 14:28:27;;;;;;;3.78;1.60;;;;;;;;;;5029740;28;20025;-89
2023/07/15 14:30:52;;;;;;;6.22;1.70;;;;;;;;;;5017572;28;20117;-89
2023/07/15 14:33:18;;;;;;;4.85;1.77;;;;;;;;;;5017887;28;20462;-89
2023/07/15 14:35:43;;;;;;;3.50;1.60;;;;;;;;;;5017518;28;20018;-88
2023/07/15 14:38:08;;;;;;;4.03;1.67;;;;;;;;;;5021097;28;20017;-89
2023/07/15 14:40:34;;;;;;;4.80;1.52;;;;;;;;;;5035162;28;20049;-88